createdAt,value
2018-12-23T00:01:12.132Z,4.27
2018-12-23T00:03:43.836Z,2.90
2018-12-23T00:06:14.241Z,4.77
2018-12-23T00:08:44.796Z,7.20
2018-12-23T00:11:15.215Z,4.53
2018-12-23T00:13:45.730Z,4.00
2018-12-23T00:16:16.330Z,4.30
2018-12-23T00:18:47.030Z,4.87
2018-12-23T00:21:18.077Z,3.40
2018-12-23T00:23:48.726Z,2.73
2018-12-23T00:26:20.068Z,4.03
2018-12-23T00:28:52.902Z,3.20
2018-12-23T00:31:23.496Z,5.40
2018-12-23T00:33:54.047Z,5.37
2018-12-23T00:36:24.641Z,3.87
2018-12-23T00:38:55.193Z,5.57
2018-12-23T00:41:25.874Z,7.37
2018-12-23T00:43:56.404Z,9.50
2018-12-23T00:46:27.554Z,15.30
2018-12-23T00:48:58.450Z,22.70
2018-12-23T00:51:30.227Z,18.57
2018-12-23T00:54:01.519Z,17.57
2018-12-23T00:56:32.874Z,13.90
2018-12-23T00:59:03.454Z,12.87
2018-12-23T01:01:37.135Z,10.23
2018-12-23T01:04:08.664Z,9.37
2018-12-23T01:06:39.165Z,8.90
2018-12-23T01:09:09.914Z,10.33
2018-12-23T01:11:43.878Z,14.67
2018-12-23T01:14:14.672Z,19.27
2018-12-23T01:16:45.441Z,17.00
2018-12-23T01:19:16.027Z,11.83
2018-12-23T01:21:46.905Z,13.53
2018-12-23T01:24:20.594Z,13.37
2018-12-23T01:26:51.401Z,11.83
2018-12-23T01:29:22.060Z,14.30
2018-12-23T01:31:52.687Z,14.97
2018-12-23T01:34:24.260Z,10.53
2018-12-23T01:36:54.767Z,9.53
2018-12-23T01:39:25.254Z,10.73
2018-12-23T01:41:56.277Z,7.80
2018-12-23T01:44:27.801Z,7.53
2018-12-23T01:46:58.408Z,9.63
2018-12-23T01:49:28.924Z,11.50
2018-12-23T01:51:59.402Z,8.30
2018-12-23T01:54:29.950Z,7.77
2018-12-23T01:57:00.576Z,9.37
2018-12-23T01:59:31.053Z,10.67
2018-12-23T02:02:02.096Z,7.37
2018-12-23T02:04:33.852Z,9.10
2018-12-23T02:07:04.805Z,10.77
2018-12-23T02:09:35.436Z,9.03
2018-12-23T02:12:06.140Z,9.23
2018-12-23T02:14:36.659Z,11.43
2018-12-23T02:17:07.296Z,10.23
2018-12-23T02:19:37.944Z,8.97
2018-12-23T02:22:08.804Z,10.43
2018-12-23T02:24:39.932Z,7.33
2018-12-23T02:27:10.438Z,7.13
2018-12-23T02:29:40.980Z,10.93
2018-12-23T02:32:11.937Z,10.97
2018-12-23T02:34:42.678Z,7.93
2018-12-23T02:37:13.217Z,6.73
2018-12-23T02:39:43.793Z,6.77
2018-12-23T02:42:15.507Z,7.37
2018-12-23T02:44:49.115Z,6.53
2018-12-23T02:47:19.802Z,7.30
2018-12-23T02:49:51.798Z,5.60
2018-12-23T02:52:22.648Z,7.50
2018-12-23T02:54:53.424Z,8.53
2018-12-23T02:57:25.052Z,6.93
2018-12-23T02:59:55.923Z,6.70
2018-12-23T03:02:27.212Z,8.03
2018-12-23T03:04:57.771Z,11.43
2018-12-23T03:07:28.979Z,8.00
2018-12-23T03:09:59.698Z,11.37
2018-12-23T03:12:30.589Z,7.60
2018-12-23T03:15:01.159Z,8.17
2018-12-23T03:17:31.710Z,6.00
2018-12-23T03:20:02.215Z,8.07
2018-12-23T03:22:33.560Z,5.97
2018-12-23T03:25:04.737Z,4.73
2018-12-23T03:27:35.406Z,6.60
2018-12-23T03:30:06.345Z,6.70
2018-12-23T03:32:36.891Z,5.37
2018-12-23T03:35:07.548Z,7.43
2018-12-23T03:37:38.051Z,5.10
2018-12-23T03:40:08.654Z,5.17
2018-12-23T03:42:43.045Z,5.73
2018-12-23T03:45:13.760Z,4.80
2018-12-23T03:47:44.304Z,4.43
2018-12-23T03:50:15.279Z,5.10
2018-12-23T03:52:45.825Z,6.27
2018-12-23T03:55:16.443Z,4.97
2018-12-23T03:57:48.144Z,5.87
2018-12-23T04:00:19.441Z,4.00
2018-12-23T04:02:50.231Z,4.50
2018-12-23T04:05:22.103Z,5.57
2018-12-23T04:07:53.227Z,6.97
2018-12-23T04:10:23.899Z,8.53
2018-12-23T04:12:54.632Z,5.57
2018-12-23T04:15:25.434Z,6.70
2018-12-23T04:17:56.201Z,5.43
2018-12-23T04:20:26.986Z,5.83
2018-12-23T04:22:59.715Z,4.57
2018-12-23T04:25:30.786Z,3.97
2018-12-23T04:28:01.474Z,3.53
2018-12-23T04:30:32.187Z,3.00
2018-12-23T04:33:02.763Z,3.87
2018-12-23T04:35:33.648Z,4.50
2018-12-23T04:38:04.357Z,5.50
2018-12-23T04:40:35.149Z,3.10
2018-12-23T04:43:06.500Z,3.77
2018-12-23T04:45:37.615Z,3.27
2018-12-23T04:48:08.271Z,3.37
2018-12-23T04:50:38.764Z,6.60
2018-12-23T04:53:09.311Z,6.43
2018-12-23T04:55:40.703Z,5.53
2018-12-23T04:58:11.331Z,3.57
2018-12-23T05:00:42.056Z,3.07
2018-12-23T05:03:12.732Z,3.53
2018-12-23T05:05:43.551Z,3.40
2018-12-23T05:08:14.634Z,4.80
2018-12-23T05:10:49.133Z,3.60
2018-12-23T05:13:19.741Z,3.37
2018-12-23T05:15:51.040Z,6.37
2018-12-23T05:18:21.822Z,4.37
2018-12-23T05:20:52.724Z,3.57
2018-12-23T05:23:23.247Z,6.30
2018-12-23T05:25:54.187Z,5.27
2018-12-23T05:28:26.234Z,3.77
2018-12-23T05:30:57.638Z,3.73
2018-12-23T05:33:28.275Z,4.17
2018-12-23T05:35:59.201Z,4.37
2018-12-23T05:38:29.713Z,6.13
2018-12-23T05:41:00.293Z,4.47
2018-12-23T05:43:30.887Z,6.30
2018-12-23T05:46:01.660Z,4.60
2018-12-23T05:48:32.131Z,64.30
2018-12-23T05:51:03.180Z,14.47
2018-12-23T05:53:33.822Z,16.03
2018-12-23T05:56:04.343Z,16.77
2018-12-23T05:58:34.899Z,13.13
2018-12-23T06:01:05.494Z,19.33
2018-12-23T06:03:36.231Z,9.87
2018-12-23T06:06:06.853Z,12.90
2018-12-23T06:08:37.327Z,6.20
2018-12-23T06:11:08.654Z,7.33
2018-12-23T06:13:39.149Z,6.80
2018-12-23T06:16:09.915Z,6.43
2018-12-23T06:18:40.467Z,7.90
2018-12-23T06:21:11.101Z,12.33
2018-12-23T06:23:41.771Z,6.53
2018-12-23T06:26:12.436Z,12.90
2018-12-23T06:28:45.248Z,11.80
2018-12-23T06:31:16.608Z,14.63
2018-12-23T06:33:47.093Z,18.00
2018-12-23T06:36:17.868Z,13.97
2018-12-23T06:38:48.492Z,8.80
2018-12-23T06:41:19.130Z,17.47
2018-12-23T06:43:49.767Z,37.13
2018-12-23T06:46:20.487Z,28.03
2018-12-23T06:48:51.098Z,4.90
2018-12-23T06:51:23.643Z,5.80
2018-12-23T06:53:54.182Z,7.50
2018-12-23T06:56:24.679Z,5.47
2018-12-23T06:58:56.178Z,5.23
2018-12-23T07:01:27.770Z,4.07
2018-12-23T07:04:03.424Z,7.60
2018-12-23T07:06:40.149Z,4.63
2018-12-23T07:09:10.951Z,11.30
2018-12-23T07:11:41.646Z,8.97
2018-12-23T07:14:12.352Z,8.17
2018-12-23T07:16:49.899Z,10.33
2018-12-23T07:19:20.709Z,12.03
2018-12-23T07:21:51.447Z,32.37
2018-12-23T07:24:23.819Z,8.40
2018-12-23T07:26:58.337Z,12.73
2018-12-23T07:29:29.442Z,19.40
2018-12-23T07:32:00.253Z,23.70
2018-12-23T07:34:31.042Z,15.97
2018-12-23T07:37:01.900Z,14.50
2018-12-23T07:39:33.684Z,18.57
2018-12-23T07:42:04.573Z,18.30
2018-12-23T07:44:37.228Z,11.47
2018-12-23T07:47:08.182Z,7.63
2018-12-23T07:49:39.013Z,50.43
2018-12-23T07:52:10.101Z,28.57
2018-12-23T07:54:40.955Z,53.47
2018-12-23T07:57:11.800Z,50.07
2018-12-23T07:59:42.590Z,28.80
2018-12-23T08:02:13.404Z,22.00
2018-12-23T08:04:44.387Z,13.43
2018-12-23T08:07:17.918Z,11.20
2018-12-23T08:09:48.916Z,37.97
2018-12-23T08:12:19.912Z,42.77
2018-12-23T08:14:50.742Z,55.70
2018-12-23T08:17:23.492Z,18.47
2018-12-23T08:19:55.005Z,23.50
2018-12-23T08:22:25.870Z,13.73
2018-12-23T08:24:57.210Z,17.23
2018-12-23T08:27:28.607Z,22.33
2018-12-23T08:29:59.415Z,37.33
2018-12-23T08:32:30.185Z,48.60
2018-12-23T08:35:00.944Z,29.37
2018-12-23T08:37:32.852Z,42.60
2018-12-23T08:40:04.515Z,27.07
2018-12-23T08:42:35.202Z,37.97
2018-12-23T08:45:09.594Z,41.23
2018-12-23T08:47:40.377Z,57.10
2018-12-23T08:50:11.275Z,29.83
2018-12-23T08:52:42.408Z,25.57
2018-12-23T08:55:13.439Z,27.53
2018-12-23T08:57:45.445Z,21.17
2018-12-23T09:00:16.436Z,24.83
2018-12-23T09:02:47.437Z,21.30
2018-12-23T09:05:20.102Z,19.50
2018-12-23T09:07:53.155Z,26.33
2018-12-23T09:10:24.684Z,19.70
2018-12-23T09:12:55.473Z,17.13
2018-12-23T09:30:13.106Z,31.03
2018-12-23T09:32:45.318Z,35.10
2018-12-23T09:35:22.162Z,27.23
2018-12-23T09:38:01.424Z,14.03
2018-12-23T09:40:28.127Z,29.77
2018-12-23T09:43:00.178Z,14.90
2018-12-23T09:45:32.378Z,32.53
2018-12-23T09:48:04.365Z,46.83
2018-12-23T09:50:36.442Z,30.00
2018-12-23T09:53:08.574Z,14.33
2018-12-23T09:55:40.688Z,12.83
2018-12-23T09:58:12.788Z,8.13
2018-12-23T10:00:45.003Z,7.37
2018-12-23T10:03:17.262Z,9.17
2018-12-23T10:05:49.441Z,5.00
2018-12-23T10:08:21.561Z,5.60
2018-12-23T10:10:53.482Z,6.20
2018-12-23T10:13:25.576Z,4.77
2018-12-23T10:15:57.564Z,5.40
2018-12-23T10:18:29.610Z,5.23
2018-12-23T10:21:07.583Z,5.13
2018-12-23T10:23:39.926Z,5.37
2018-12-23T10:26:11.978Z,7.27
2018-12-23T10:28:44.128Z,5.90
2018-12-23T10:31:19.308Z,6.47
2018-12-23T10:33:51.434Z,5.97
2018-12-23T10:36:23.695Z,9.93
2018-12-23T10:38:55.833Z,7.77
2018-12-23T10:41:27.920Z,7.30
2018-12-23T10:44:00.030Z,6.47
2018-12-23T10:46:33.640Z,4.53
2018-12-23T10:49:08.156Z,4.10
2018-12-23T10:51:40.266Z,4.60
2018-12-23T10:54:12.350Z,4.17
2018-12-23T10:56:46.920Z,4.20
2018-12-23T10:59:20.716Z,4.00
2018-12-23T11:01:52.874Z,4.03
2018-12-23T11:04:28.529Z,3.20
2018-12-23T11:07:00.549Z,3.33
2018-12-23T11:09:32.788Z,3.60
2018-12-23T11:12:04.786Z,3.00
2018-12-23T11:14:40.506Z,3.20
2018-12-23T11:17:12.614Z,6.40
2018-12-23T11:19:44.850Z,4.03
2018-12-23T11:22:17.136Z,6.33
2018-12-23T11:24:49.379Z,5.70
2018-12-23T11:27:21.516Z,4.93
2018-12-23T11:29:55.168Z,4.77
2018-12-23T11:32:27.394Z,2.80
2018-12-23T11:34:59.801Z,3.80
2018-12-23T11:38:00.838Z,2.93
2018-12-23T11:40:37.389Z,2.27
2018-12-23T11:43:10.964Z,2.80
2018-12-23T11:45:46.819Z,2.30
2018-12-23T11:48:23.251Z,2.57
2018-12-23T11:50:59.036Z,5.67
2018-12-23T11:54:06.522Z,3.63
2018-12-23T11:56:39.004Z,2.80
2018-12-23T11:59:13.598Z,2.87
2018-12-23T12:01:48.000Z,3.83
2018-12-23T12:04:20.165Z,3.13
2018-12-23T12:06:56.134Z,3.00
2018-12-23T12:09:32.585Z,5.93
2018-12-23T12:12:04.838Z,8.00
2018-12-23T12:14:37.459Z,4.27
2018-12-23T12:17:14.997Z,4.57
2018-12-23T12:19:52.220Z,5.00
2018-12-23T12:22:30.156Z,5.03
2018-12-23T12:25:02.156Z,3.90
2018-12-23T12:27:34.606Z,4.53
2018-12-23T12:30:09.252Z,8.67
2018-12-23T12:32:41.598Z,6.63
2018-12-23T12:35:13.815Z,4.40
2018-12-23T12:37:50.770Z,5.80
2018-12-23T12:40:23.320Z,8.03
2018-12-23T12:42:55.374Z,7.60
2018-12-23T12:45:27.697Z,8.60
2018-12-23T12:48:00.300Z,11.60
2018-12-23T12:50:32.916Z,6.00
2018-12-23T12:53:05.257Z,8.47
2018-12-23T12:55:37.348Z,11.40
2018-12-23T12:58:12.371Z,5.93
2018-12-23T13:00:44.505Z,5.07
2018-12-23T13:03:16.707Z,6.70
2018-12-23T13:05:48.978Z,7.17
2018-12-23T13:08:21.113Z,4.57
2018-12-23T13:10:53.328Z,19.97
2018-12-23T13:13:28.933Z,8.57
2018-12-23T13:16:00.968Z,24.23
2018-12-23T13:18:33.021Z,11.03
2018-12-23T13:21:05.031Z,5.33
2018-12-23T13:23:37.263Z,7.57
2018-12-23T13:26:09.405Z,6.13
2018-12-23T13:28:41.592Z,5.47
2018-12-23T13:31:13.691Z,7.20
2018-12-23T13:33:45.996Z,7.00
2018-12-23T13:36:18.323Z,6.80
2018-12-23T13:38:52.102Z,7.80
2018-12-23T13:42:08.074Z,8.43
2018-12-23T13:45:07.026Z,7.27
2018-12-23T13:48:32.254Z,7.23
2018-12-23T13:51:40.227Z,8.07
2018-12-23T13:54:34.560Z,8.43
2018-12-23T13:57:41.388Z,7.30
2018-12-23T14:00:49.560Z,7.07
2018-12-23T14:03:54.128Z,4.77
2018-12-23T14:07:13.890Z,8.67
2018-12-23T14:10:01.222Z,4.40
2018-12-23T14:12:38.485Z,7.70
2018-12-23T14:15:11.773Z,4.63
2018-12-23T14:17:47.802Z,5.23
2018-12-23T14:20:23.570Z,5.07
2018-12-23T14:22:56.062Z,3.90
2018-12-23T14:25:28.696Z,6.83
2018-12-23T14:28:02.610Z,4.97
2018-12-23T14:30:35.330Z,9.60
2018-12-23T14:33:07.768Z,9.70
2018-12-23T14:35:43.475Z,6.13
2018-12-23T14:38:15.820Z,6.00
2018-12-23T14:40:49.722Z,6.63
2018-12-23T14:43:21.818Z,6.97
2018-12-23T14:45:53.994Z,5.87
2018-12-23T14:48:26.318Z,5.37
2018-12-23T14:50:58.394Z,6.60
2018-12-23T14:53:30.407Z,4.63
2018-12-23T14:56:09.304Z,5.03
2018-12-23T14:59:31.496Z,7.80
2018-12-23T15:02:03.720Z,6.77
2018-12-23T15:04:43.033Z,11.63
2018-12-23T15:07:22.065Z,8.53
2018-12-23T15:09:54.417Z,10.67
2018-12-23T15:12:26.577Z,12.10
2018-12-23T15:14:58.585Z,7.60
2018-12-23T15:17:30.635Z,16.10
2018-12-23T15:20:05.360Z,16.10
2018-12-23T15:22:37.605Z,10.93
2018-12-23T15:25:09.687Z,14.17
2018-12-23T15:27:49.383Z,22.27
2018-12-23T15:30:24.436Z,19.17
2018-12-23T15:32:59.449Z,14.53
2018-12-23T15:35:32.176Z,11.43
2018-12-23T15:38:09.215Z,47.17
2018-12-23T15:40:47.478Z,104.33
2018-12-23T15:43:21.111Z,52.40
2018-12-23T15:46:58.324Z,52.67
2018-12-23T15:49:32.275Z,41.70
2018-12-23T15:52:10.277Z,18.47
2018-12-23T15:54:46.193Z,11.87
2018-12-23T15:57:22.308Z,25.73
2018-12-23T16:00:03.319Z,21.93
2018-12-23T16:02:38.398Z,18.87
2018-12-23T16:05:17.320Z,14.63
2018-12-23T16:07:51.993Z,72.57
2018-12-23T16:10:24.332Z,70.20
2018-12-23T16:13:03.665Z,166.30
2018-12-23T16:15:35.787Z,114.50
2018-12-23T16:19:05.102Z,66.50
2018-12-23T16:21:37.211Z,53.20
2018-12-23T16:24:09.321Z,22.30
2018-12-23T16:26:41.369Z,29.40
2018-12-23T16:29:13.604Z,11.43
2018-12-23T16:31:46.949Z,10.03
2018-12-23T16:34:21.578Z,16.57
2018-12-23T16:36:59.470Z,15.20
2018-12-23T16:39:31.736Z,17.37
2018-12-23T16:42:04.158Z,22.20
2018-12-23T16:44:36.436Z,31.70
2018-12-23T16:47:08.665Z,12.53
2018-12-23T16:49:43.822Z,10.73
2018-12-23T16:52:16.058Z,13.00
2018-12-23T16:54:48.458Z,13.37
2018-12-23T16:57:20.494Z,15.27
2018-12-23T16:59:52.652Z,13.00
2018-12-23T17:02:24.814Z,15.23
2018-12-23T17:04:57.045Z,11.03
2018-12-23T17:07:29.149Z,10.97
2018-12-23T17:10:08.343Z,14.17
2018-12-23T17:12:34.762Z,10.20
2018-12-23T17:15:07.314Z,17.87
2018-12-23T17:17:39.311Z,15.70
2018-12-23T17:20:14.272Z,10.93
2018-12-23T17:22:47.142Z,9.67
2018-12-23T17:25:19.473Z,11.57
2018-12-23T17:27:51.539Z,7.13
2018-12-23T17:30:24.381Z,7.13
2018-12-23T17:32:56.574Z,21.97
2018-12-23T17:35:28.805Z,13.53
2018-12-23T17:38:00.811Z,53.80
2018-12-23T17:40:32.964Z,30.03
2018-12-23T17:43:05.095Z,30.13
2018-12-23T17:45:37.235Z,26.50
2018-12-23T17:48:11.077Z,31.50
2018-12-23T17:50:43.430Z,27.70
2018-12-23T17:53:15.660Z,33.50
2018-12-23T17:55:47.981Z,29.47
2018-12-23T17:58:19.957Z,65.57
2018-12-23T18:00:53.269Z,50.20
2018-12-23T18:03:25.439Z,12.47
2018-12-23T18:05:57.620Z,21.57
2018-12-23T18:08:32.565Z,104.30
2018-12-23T18:11:07.845Z,46.00
2018-12-23T18:13:39.867Z,109.63
2018-12-23T18:16:12.070Z,65.20
2018-12-23T18:18:44.259Z,86.13
2018-12-23T18:21:16.308Z,33.67
2018-12-23T18:23:48.436Z,66.10
2018-12-23T18:26:20.616Z,156.63
2018-12-23T18:28:52.768Z,68.63
2018-12-23T18:31:24.782Z,28.13
2018-12-23T18:33:56.805Z,16.77
2018-12-23T18:36:28.951Z,18.63
2018-12-23T18:39:01.075Z,56.63
2018-12-23T18:41:33.728Z,32.27
2018-12-23T18:44:11.696Z,41.63
2018-12-23T18:46:45.059Z,64.43
2018-12-23T18:49:17.589Z,34.00
2018-12-23T18:51:50.125Z,62.87
2018-12-23T18:54:22.331Z,50.10
2018-12-23T18:56:59.563Z,56.50
2018-12-23T18:59:32.909Z,52.43
2018-12-23T19:02:11.409Z,26.10
2018-12-23T19:04:46.734Z,36.17
2018-12-23T19:07:18.921Z,17.33
2018-12-23T19:10:20.293Z,20.13
2018-12-23T19:13:40.643Z,15.17
2018-12-23T19:17:05.061Z,25.67
2018-12-23T19:19:55.327Z,35.33
2018-12-23T19:23:03.290Z,112.60
2018-12-23T19:26:15.907Z,29.27
2018-12-23T19:29:00.713Z,14.43
2018-12-23T19:32:11.951Z,13.33
2018-12-23T19:35:22.973Z,21.27
2018-12-23T19:38:26.304Z,27.13
2018-12-23T19:41:40.198Z,43.40
2018-12-23T19:44:39.421Z,33.40
2018-12-23T19:48:00.385Z,31.47
2018-12-23T19:50:58.999Z,24.30
2018-12-23T19:53:50.392Z,27.23
2018-12-23T19:57:11.600Z,25.73
2018-12-23T20:00:23.743Z,17.80
2018-12-23T20:03:30.491Z,22.23
2018-12-23T20:06:12.981Z,26.67
2018-12-23T20:09:15.047Z,24.27
2018-12-23T20:12:42.476Z,29.50
2018-12-23T20:16:12.807Z,16.40
2018-12-23T20:19:26.900Z,14.77
2018-12-23T20:22:49.317Z,14.63
2018-12-23T20:25:56.603Z,10.17
2018-12-23T20:29:16.881Z,10.63
2018-12-23T20:32:39.372Z,12.10
2018-12-23T20:35:48.175Z,11.27
2018-12-23T20:39:03.155Z,13.90
2018-12-23T20:42:13.044Z,12.53
2018-12-23T20:45:28.615Z,12.43
2018-12-23T20:48:49.813Z,9.10
2018-12-23T20:52:07.711Z,10.47
2018-12-23T20:55:13.095Z,10.07
2018-12-23T20:58:31.556Z,7.83
2018-12-23T21:01:41.349Z,6.20
2018-12-23T21:04:52.183Z,6.57
2018-12-23T21:07:39.043Z,6.90
2018-12-23T21:10:54.485Z,12.73
2018-12-23T21:14:09.735Z,23.10
2018-12-23T21:17:25.387Z,17.03
2018-12-23T21:20:33.636Z,15.37
2018-12-23T21:23:43.270Z,10.87
2018-12-23T21:26:53.988Z,11.27
2018-12-23T21:30:30.658Z,16.93
2018-12-23T21:33:29.150Z,13.03
2018-12-23T21:36:32.644Z,16.43
2018-12-23T21:39:39.476Z,13.33
2018-12-23T21:43:03.063Z,13.57
2018-12-23T21:46:12.356Z,11.87
2018-12-23T21:49:20.712Z,12.27
2018-12-23T21:52:47.882Z,19.77
2018-12-23T21:55:56.050Z,18.00
2018-12-23T21:58:58.100Z,17.03
2018-12-23T22:02:03.494Z,15.37
2018-12-23T22:05:03.152Z,10.30
2018-12-23T22:08:11.682Z,15.90
2018-12-23T22:11:06.194Z,12.20
2018-12-23T22:14:03.616Z,11.60
2018-12-23T22:16:54.672Z,9.83
2018-12-23T22:19:26.524Z,10.00
2018-12-23T22:21:58.668Z,8.60
2018-12-23T22:24:30.588Z,10.17
2018-12-23T22:27:02.686Z,11.90
2018-12-23T22:29:34.604Z,9.87
2018-12-23T22:32:07.924Z,9.23
2018-12-23T22:34:39.778Z,7.80
2018-12-23T22:37:14.726Z,8.53
2018-12-23T22:39:49.816Z,13.57
2018-12-23T22:42:23.634Z,9.43
2018-12-23T22:45:22.112Z,10.70
2018-12-23T22:47:58.587Z,10.50
2018-12-23T22:50:37.952Z,8.97
2018-12-23T22:53:11.790Z,17.40
2018-12-23T22:55:53.361Z,14.20
2018-12-23T22:58:25.458Z,17.03
2018-12-23T23:00:57.490Z,14.67
2018-12-23T23:03:31.766Z,11.97
2018-12-23T23:06:03.671Z,14.10
2018-12-23T23:08:35.684Z,16.90
2018-12-23T23:11:07.641Z,14.03
2018-12-23T23:13:46.308Z,13.43
2018-12-23T23:16:24.948Z,9.20
2018-12-23T23:18:56.935Z,11.23
2018-12-23T23:21:29.042Z,10.23
2018-12-23T23:24:05.638Z,11.63
2018-12-23T23:26:37.720Z,9.33
2018-12-23T23:29:09.620Z,8.40
2018-12-23T23:31:44.341Z,9.93
2018-12-23T23:34:16.280Z,7.73
2018-12-23T23:36:57.428Z,11.17
2018-12-23T23:39:35.152Z,8.50
2018-12-23T23:42:07.006Z,7.80
2018-12-23T23:44:38.955Z,8.83
2018-12-23T23:47:20.279Z,40.30
2018-12-23T23:49:52.228Z,31.23
2018-12-23T23:52:24.243Z,16.43
2018-12-23T23:55:24.206Z,20.37
2018-12-23T23:57:58.323Z,17.60
